sensor_id;sensor_type;location;lat;lon;timestamp;P1;durP1;ratioP1;P2;durP2;ratioP2
77814;SDS011;67002;52.124;21.210;2023-03-16T00:02:22;11.70;;;6.90;;
77814;SDS011;67002;52.124;21.210;2023-03-16T00:04:54;15.20;;;6.70;;
77814;SDS011;67002;52.124;21.210;2023-03-16T00:07:26;11.20;;;6.20;;
77814;SDS011;67002;52.124;21.210;2023-03-16T00:09:57;12.60;;;6.80;;
77814;SDS011;67002;52.124;21.210;2023-03-16T00:12:30;11.80;;;6.40;;
77814;SDS011;67002;52.124;21.210;2023-03-16T00:15:03;11.50;;;6.50;;
77814;SDS011;67002;52.124;21.210;2023-03-16T00:17:35;13.90;;;6.60;;
77814;SDS011;67002;52.124;21.210;2023-03-16T00:20:08;13.00;;;7.10;;
77814;SDS011;67002;52.124;21.210;2023-03-16T00:22:41;13.00;;;7.60;;
77814;SDS011;67002;52.124;21.210;2023-03-16T00:25:13;12.30;;;7.10;;
77814;SDS011;67002;52.124;21.210;2023-03-16T00:27:45;16.10;;;6.60;;
77814;SDS011;67002;52.124;21.210;2023-03-16T00:30:17;12.20;;;7.00;;
77814;SDS011;67002;52.124;21.210;2023-03-16T00:32:50;13.40;;;7.30;;
77814;SDS011;67002;52.124;21.210;2023-03-16T00:35:22;12.50;;;6.50;;
77814;SDS011;67002;52.124;21.210;2023-03-16T00:37:55;13.60;;;7.40;;
77814;SDS011;67002;52.124;21.210;2023-03-16T00:40:26;12.50;;;6.50;;
77814;SDS011;67002;52.124;21.210;2023-03-16T00:42:59;12.20;;;7.50;;
77814;SDS011;67002;52.124;21.210;2023-03-16T00:45:30;15.10;;;7.40;;
77814;SDS011;67002;52.124;21.210;2023-03-16T00:48:02;14.60;;;7.60;;
77814;SDS011;67002;52.124;21.210;2023-03-16T00:50:34;13.00;;;6.40;;
77814;SDS011;67002;52.124;21.210;2023-03-16T00:53:06;10.10;;;6.60;;
77814;SDS011;67002;52.124;21.210;2023-03-16T00:55:38;12.10;;;7.80;;
77814;SDS011;67002;52.124;21.210;2023-03-16T00:58:11;13.20;;;6.90;;
77814;SDS011;67002;52.124;21.210;2023-03-16T01:00:42;12.40;;;6.80;;
77814;SDS011;67002;52.124;21.210;2023-03-16T01:03:15;13.00;;;6.80;;
77814;SDS011;67002;52.124;21.210;2023-03-16T01:05:47;11.10;;;6.70;;
77814;SDS011;67002;52.124;21.210;2023-03-16T01:08:19;13.50;;;7.30;;
77814;SDS011;67002;52.124;21.210;2023-03-16T01:10:51;12.40;;;6.70;;
77814;SDS011;67002;52.124;21.210;2023-03-16T01:13:23;13.50;;;7.00;;
77814;SDS011;67002;52.124;21.210;2023-03-16T01:15:55;14.80;;;7.10;;
77814;SDS011;67002;52.124;21.210;2023-03-16T01:18:27;12.10;;;6.90;;
77814;SDS011;67002;52.124;21.210;2023-03-16T01:21:02;9.90;;;5.90;;
77814;SDS011;67002;52.124;21.210;2023-03-16T01:23:36;10.40;;;6.60;;
77814;SDS011;67002;52.124;21.210;2023-03-16T01:26:08;10.40;;;6.50;;
77814;SDS011;67002;52.124;21.210;2023-03-16T01:28:40;11.90;;;6.40;;
77814;SDS011;67002;52.124;21.210;2023-03-16T01:31:12;13.00;;;6.90;;
77814;SDS011;67002;52.124;21.210;2023-03-16T01:33:45;13.20;;;7.20;;
77814;SDS011;67002;52.124;21.210;2023-03-16T01:36:21;11.60;;;7.20;;
77814;SDS011;67002;52.124;21.210;2023-03-16T01:38:57;12.30;;;7.10;;
77814;SDS011;67002;52.124;21.210;2023-03-16T01:41:35;12.30;;;7.10;;
77814;SDS011;67002;52.124;21.210;2023-03-16T01:44:09;14.60;;;7.00;;
77814;SDS011;67002;52.124;21.210;2023-03-16T01:46:42;12.30;;;6.90;;
77814;SDS011;67002;52.124;21.210;2023-03-16T01:49:15;12.10;;;6.60;;
77814;SDS011;67002;52.124;21.210;2023-03-16T01:51:50;13.50;;;7.70;;
77814;SDS011;67002;52.124;21.210;2023-03-16T01:54:26;13.10;;;6.50;;
77814;SDS011;67002;52.124;21.210;2023-03-16T01:57:00;13.20;;;7.20;;
77814;SDS011;67002;52.124;21.210;2023-03-16T01:59:36;15.30;;;6.70;;
77814;SDS011;67002;52.124;21.210;2023-03-16T02:02:11;13.20;;;6.90;;
77814;SDS011;67002;52.124;21.210;2023-03-16T02:04:45;12.90;;;7.60;;
77814;SDS011;67002;52.124;21.210;2023-03-16T02:07:21;14.10;;;6.90;;
77814;SDS011;67002;52.124;21.210;2023-03-16T02:09:56;13.30;;;6.70;;
77814;SDS011;67002;52.124;21.210;2023-03-16T02:12:30;15.20;;;7.30;;
77814;SDS011;67002;52.124;21.210;2023-03-16T02:15:03;13.60;;;6.70;;
77814;SDS011;67002;52.124;21.210;2023-03-16T02:17:36;11.30;;;6.60;;
77814;SDS011;67002;52.124;21.210;2023-03-16T02:20:13;12.10;;;6.30;;
77814;SDS011;67002;52.124;21.210;2023-03-16T02:22:52;13.20;;;7.20;;
77814;SDS011;67002;52.124;21.210;2023-03-16T02:25:27;12.60;;;7.00;;
77814;SDS011;67002;52.124;21.210;2023-03-16T02:28:03;10.10;;;6.60;;
77814;SDS011;67002;52.124;21.210;2023-03-16T02:30:41;13.30;;;7.00;;
77814;SDS011;67002;52.124;21.210;2023-03-16T02:33:13;13.80;;;6.60;;
77814;SDS011;67002;52.124;21.210;2023-03-16T02:35:45;12.60;;;6.90;;
77814;SDS011;67002;52.124;21.210;2023-03-16T02:38:17;10.40;;;6.40;;
77814;SDS011;67002;52.124;21.210;2023-03-16T02:40:56;12.30;;;6.90;;
77814;SDS011;67002;52.124;21.210;2023-03-16T02:43:30;11.10;;;7.00;;
77814;SDS011;67002;52.124;21.210;2023-03-16T02:46:26;11.30;;;6.20;;
77814;SDS011;67002;52.124;21.210;2023-03-16T02:49:04;10.40;;;6.30;;
77814;SDS011;67002;52.124;21.210;2023-03-16T02:51:39;12.80;;;6.80;;
77814;SDS011;67002;52.124;21.210;2023-03-16T02:54:11;14.50;;;7.00;;
77814;SDS011;67002;52.124;21.210;2023-03-16T02:56:43;14.30;;;7.00;;
77814;SDS011;67002;52.124;21.210;2023-03-16T02:59:15;11.70;;;6.50;;
77814;SDS011;67002;52.124;21.210;2023-03-16T03:01:47;11.50;;;6.10;;
77814;SDS011;67002;52.124;21.210;2023-03-16T03:04:19;12.10;;;6.40;;
77814;SDS011;67002;52.124;21.210;2023-03-16T03:06:52;11.30;;;6.50;;
77814;SDS011;67002;52.124;21.210;2023-03-16T03:09:30;13.30;;;6.60;;
77814;SDS011;67002;52.124;21.210;2023-03-16T03:12:02;11.70;;;6.00;;
77814;SDS011;67002;52.124;21.210;2023-03-16T03:14:35;14.50;;;6.30;;
77814;SDS011;67002;52.124;21.210;2023-03-16T03:17:08;11.20;;;6.10;;
77814;SDS011;67002;52.124;21.210;2023-03-16T03:19:41;13.80;;;6.50;;
77814;SDS011;67002;52.124;21.210;2023-03-16T03:22:13;14.40;;;6.70;;
77814;SDS011;67002;52.124;21.210;2023-03-16T03:24:46;14.90;;;7.10;;
77814;SDS011;67002;52.124;21.210;2023-03-16T03:27:19;11.60;;;6.10;;
77814;SDS011;67002;52.124;21.210;2023-03-16T03:29:53;14.70;;;6.10;;
77814;SDS011;67002;52.124;21.210;2023-03-16T03:32:25;12.00;;;5.70;;
77814;SDS011;67002;52.124;21.210;2023-03-16T03:34:57;10.70;;;5.80;;
77814;SDS011;67002;52.124;21.210;2023-03-16T03:37:29;11.70;;;5.10;;
77814;SDS011;67002;52.124;21.210;2023-03-16T03:40:01;7.70;;;3.50;;
77814;SDS011;67002;52.124;21.210;2023-03-16T03:42:34;7.10;;;4.00;;
77814;SDS011;67002;52.124;21.210;2023-03-16T03:45:07;10.40;;;5.70;;
77814;SDS011;67002;52.124;21.210;2023-03-16T03:47:41;13.00;;;6.30;;
77814;SDS011;67002;52.124;21.210;2023-03-16T03:50:18;11.90;;;6.10;;
77814;SDS011;67002;52.124;21.210;2023-03-16T03:53:00;10.70;;;6.60;;
77814;SDS011;67002;52.124;21.210;2023-03-16T03:55:33;11.20;;;5.70;;
77814;SDS011;67002;52.124;21.210;2023-03-16T03:58:05;12.10;;;6.30;;
77814;SDS011;67002;52.124;21.210;2023-03-16T04:00:37;10.50;;;6.40;;
77814;SDS011;67002;52.124;21.210;2023-03-16T04:03:09;10.20;;;6.50;;
77814;SDS011;67002;52.124;21.210;2023-03-16T04:05:44;13.00;;;6.60;;
77814;SDS011;67002;52.124;21.210;2023-03-16T04:08:16;13.80;;;6.30;;
77814;SDS011;67002;52.124;21.210;2023-03-16T04:10:49;12.20;;;6.30;;
77814;SDS011;67002;52.124;21.210;2023-03-16T04:13:22;13.00;;;6.20;;
77814;SDS011;67002;52.124;21.210;2023-03-16T04:15:56;9.10;;;4.90;;
77814;SDS011;67002;52.124;21.210;2023-03-16T04:18:35;9.70;;;5.40;;
77814;SDS011;67002;52.124;21.210;2023-03-16T04:21:11;12.50;;;6.30;;
77814;SDS011;67002;52.124;21.210;2023-03-16T04:23:47;12.30;;;6.40;;
77814;SDS011;67002;52.124;21.210;2023-03-16T04:26:25;13.90;;;7.00;;
77814;SDS011;67002;52.124;21.210;2023-03-16T04:28:57;11.30;;;6.30;;
77814;SDS011;67002;52.124;21.210;2023-03-16T04:31:31;8.70;;;5.80;;
77814;SDS011;67002;52.124;21.210;2023-03-16T04:34:03;11.70;;;6.60;;
77814;SDS011;67002;52.124;21.210;2023-03-16T04:36:35;14.10;;;6.40;;
77814;SDS011;67002;52.124;21.210;2023-03-16T04:39:07;10.60;;;6.10;;
77814;SDS011;67002;52.124;21.210;2023-03-16T04:41:39;13.40;;;6.50;;
77814;SDS011;67002;52.124;21.210;2023-03-16T04:44:19;13.80;;;6.40;;
77814;SDS011;67002;52.124;21.210;2023-03-16T04:46:54;12.70;;;7.20;;
77814;SDS011;67002;52.124;21.210;2023-03-16T04:49:28;10.30;;;6.30;;
77814;SDS011;67002;52.124;21.210;2023-03-16T04:52:00;10.60;;;6.60;;
77814;SDS011;67002;52.124;21.210;2023-03-16T04:54:32;9.50;;;5.80;;
77814;SDS011;67002;52.124;21.210;2023-03-16T04:57:05;14.40;;;7.40;;
77814;SDS011;67002;52.124;21.210;2023-03-16T04:59:41;12.00;;;7.10;;
77814;SDS011;67002;52.124;21.210;2023-03-16T05:02:25;14.20;;;7.30;;
77814;SDS011;67002;52.124;21.210;2023-03-16T05:05:00;11.00;;;6.50;;
77814;SDS011;67002;52.124;21.210;2023-03-16T05:07:32;11.80;;;6.40;;
77814;SDS011;67002;52.124;21.210;2023-03-16T05:10:05;13.30;;;7.30;;
77814;SDS011;67002;52.124;21.210;2023-03-16T05:12:39;12.50;;;6.70;;
77814;SDS011;67002;52.124;21.210;2023-03-16T05:15:11;13.90;;;7.30;;
77814;SDS011;67002;52.124;21.210;2023-03-16T05:17:46;13.10;;;6.90;;
77814;SDS011;67002;52.124;21.210;2023-03-16T05:20:18;10.10;;;6.30;;
77814;SDS011;67002;52.124;21.210;2023-03-16T05:25:30;14.70;;;7.30;;
77814;SDS011;67002;52.124;21.210;2023-03-16T05:28:04;11.10;;;6.30;;
77814;SDS011;67002;52.124;21.210;2023-03-16T05:30:47;11.50;;;6.00;;
77814;SDS011;67002;52.124;21.210;2023-03-16T05:33:22;14.40;;;7.40;;
77814;SDS011;67002;52.124;21.210;2023-03-16T05:36:00;16.40;;;7.50;;
77814;SDS011;67002;52.124;21.210;2023-03-16T05:38:32;13.20;;;7.10;;
77814;SDS011;67002;52.124;21.210;2023-03-16T05:41:06;14.00;;;7.10;;
77814;SDS011;67002;52.124;21.210;2023-03-16T05:43:57;14.00;;;7.20;;
77814;SDS011;67002;52.124;21.210;2023-03-16T05:46:36;12.60;;;7.50;;
77814;SDS011;67002;52.124;21.210;2023-03-16T05:49:08;13.90;;;6.50;;
77814;SDS011;67002;52.124;21.210;2023-03-16T05:51:41;10.70;;;7.30;;
77814;SDS011;67002;52.124;21.210;2023-03-16T05:54:13;13.60;;;8.40;;
77814;SDS011;67002;52.124;21.210;2023-03-16T05:56:46;13.40;;;7.60;;
77814;SDS011;67002;52.124;21.210;2023-03-16T05:59:18;16.00;;;7.30;;
77814;SDS011;67002;52.124;21.210;2023-03-16T06:01:54;14.90;;;7.90;;
77814;SDS011;67002;52.124;21.210;2023-03-16T06:04:27;17.00;;;7.90;;
77814;SDS011;67002;52.124;21.210;2023-03-16T06:07:00;12.30;;;7.10;;
77814;SDS011;67002;52.124;21.210;2023-03-16T06:09:33;17.80;;;8.60;;
77814;SDS011;67002;52.124;21.210;2023-03-16T06:12:10;14.60;;;7.40;;
77814;SDS011;67002;52.124;21.210;2023-03-16T06:14:43;13.10;;;8.00;;
77814;SDS011;67002;52.124;21.210;2023-03-16T06:17:16;15.20;;;7.90;;
77814;SDS011;67002;52.124;21.210;2023-03-16T06:19:49;15.40;;;8.40;;
77814;SDS011;67002;52.124;21.210;2023-03-16T06:22:22;15.90;;;8.40;;
77814;SDS011;67002;52.124;21.210;2023-03-16T06:24:54;13.50;;;8.40;;
77814;SDS011;67002;52.124;21.210;2023-03-16T06:27:26;14.60;;;8.10;;
77814;SDS011;67002;52.124;21.210;2023-03-16T06:30:12;13.50;;;7.50;;
77814;SDS011;67002;52.124;21.210;2023-03-16T06:32:44;13.90;;;7.10;;
77814;SDS011;67002;52.124;21.210;2023-03-16T06:35:17;11.50;;;6.40;;
77814;SDS011;67002;52.124;21.210;2023-03-16T06:38:00;11.10;;;5.80;;
77814;SDS011;67002;52.124;21.210;2023-03-16T06:40:44;11.50;;;6.90;;
77814;SDS011;67002;52.124;21.210;2023-03-16T06:43:21;11.70;;;6.40;;
77814;SDS011;67002;52.124;21.210;2023-03-16T06:45:53;10.60;;;6.30;;
77814;SDS011;67002;52.124;21.210;2023-03-16T06:48:26;12.70;;;6.10;;
77814;SDS011;67002;52.124;21.210;2023-03-16T06:50:59;11.10;;;5.70;;
77814;SDS011;67002;52.124;21.210;2023-03-16T06:53:31;12.50;;;5.40;;
77814;SDS011;67002;52.124;21.210;2023-03-16T06:56:04;9.10;;;6.20;;
77814;SDS011;67002;52.124;21.210;2023-03-16T06:58:39;10.60;;;5.70;;
77814;SDS011;67002;52.124;21.210;2023-03-16T07:01:11;10.70;;;5.80;;
77814;SDS011;67002;52.124;21.210;2023-03-16T07:03:43;7.10;;;4.90;;
77814;SDS011;67002;52.124;21.210;2023-03-16T07:06:18;8.50;;;4.80;;
77814;SDS011;67002;52.124;21.210;2023-03-16T07:08:50;7.60;;;5.10;;
77814;SDS011;67002;52.124;21.210;2023-03-16T07:11:22;6.90;;;4.50;;
77814;SDS011;67002;52.124;21.210;2023-03-16T07:13:54;8.60;;;4.50;;
77814;SDS011;67002;52.124;21.210;2023-03-16T07:16:27;8.10;;;4.70;;
77814;SDS011;67002;52.124;21.210;2023-03-16T07:19:02;9.60;;;4.90;;
77814;SDS011;67002;52.124;21.210;2023-03-16T07:21:34;8.60;;;5.20;;
77814;SDS011;67002;52.124;21.210;2023-03-16T07:24:11;10.50;;;6.70;;
77814;SDS011;67002;52.124;21.210;2023-03-16T07:26:43;7.90;;;4.50;;
77814;SDS011;67002;52.124;21.210;2023-03-16T07:29:23;7.50;;;4.60;;
77814;SDS011;67002;52.124;21.210;2023-03-16T07:31:55;10.30;;;5.00;;
77814;SDS011;67002;52.124;21.210;2023-03-16T07:34:33;7.90;;;5.60;;
77814;SDS011;67002;52.124;21.210;2023-03-16T07:37:05;9.20;;;5.30;;
77814;SDS011;67002;52.124;21.210;2023-03-16T07:39:38;7.70;;;5.10;;
77814;SDS011;67002;52.124;21.210;2023-03-16T07:42:15;7.40;;;4.90;;
77814;SDS011;67002;52.124;21.210;2023-03-16T07:45:08;5.20;;;2.70;;
77814;SDS011;67002;52.124;21.210;2023-03-16T07:47:42;9.50;;;4.90;;
77814;SDS011;67002;52.124;21.210;2023-03-16T07:50:41;7.00;;;4.90;;
77814;SDS011;67002;52.124;21.210;2023-03-16T07:53:13;6.40;;;4.00;;
77814;SDS011;67002;52.124;21.210;2023-03-16T07:55:47;8.50;;;5.00;;
77814;SDS011;67002;52.124;21.210;2023-03-16T07:58:19;6.80;;;4.30;;
77814;SDS011;67002;52.124;21.210;2023-03-16T08:00:51;11.30;;;6.10;;
77814;SDS011;67002;52.124;21.210;2023-03-16T08:03:27;9.50;;;4.70;;
77814;SDS011;67002;52.124;21.210;2023-03-16T08:06:00;8.60;;;5.60;;
77814;SDS011;67002;52.124;21.210;2023-03-16T08:08:32;6.50;;;4.40;;
77814;SDS011;67002;52.124;21.210;2023-03-16T08:11:04;7.90;;;4.00;;
77814;SDS011;67002;52.124;21.210;2023-03-16T08:13:49;8.80;;;4.80;;
77814;SDS011;67002;52.124;21.210;2023-03-16T08:16:22;8.10;;;4.10;;
77814;SDS011;67002;52.124;21.210;2023-03-16T08:18:55;8.50;;;5.00;;
77814;SDS011;67002;52.124;21.210;2023-03-16T08:21:29;8.90;;;4.60;;
77814;SDS011;67002;52.124;21.210;2023-03-16T08:24:06;7.70;;;5.40;;
77814;SDS011;67002;52.124;21.210;2023-03-16T08:26:40;8.40;;;4.50;;
77814;SDS011;67002;52.124;21.210;2023-03-16T08:29:12;7.00;;;4.50;;
77814;SDS011;67002;52.124;21.210;2023-03-16T08:31:44;7.70;;;4.10;;
77814;SDS011;67002;52.124;21.210;2023-03-16T08:34:26;7.80;;;3.80;;
77814;SDS011;67002;52.124;21.210;2023-03-16T08:36:59;7.00;;;4.50;;
77814;SDS011;67002;52.124;21.210;2023-03-16T08:39:31;6.60;;;4.40;;
77814;SDS011;67002;52.124;21.210;2023-03-16T08:42:07;8.00;;;4.50;;
77814;SDS011;67002;52.124;21.210;2023-03-16T08:44:43;6.70;;;4.10;;
77814;SDS011;67002;52.124;21.210;2023-03-16T08:47:16;6.60;;;4.20;;
77814;SDS011;67002;52.124;21.210;2023-03-16T08:49:49;6.70;;;3.60;;
77814;SDS011;67002;52.124;21.210;2023-03-16T08:52:20;4.80;;;2.90;;
77814;SDS011;67002;52.124;21.210;2023-03-16T08:54:52;5.60;;;3.20;;
77814;SDS011;67002;52.124;21.210;2023-03-16T08:57:31;5.60;;;3.00;;
77814;SDS011;67002;52.124;21.210;2023-03-16T09:00:04;5.90;;;4.00;;
77814;SDS011;67002;52.124;21.210;2023-03-16T09:02:42;6.40;;;3.70;;
77814;SDS011;67002;52.124;21.210;2023-03-16T09:05:15;7.70;;;3.50;;
77814;SDS011;67002;52.124;21.210;2023-03-16T09:07:47;5.10;;;2.80;;
77814;SDS011;67002;52.124;21.210;2023-03-16T09:10:19;4.40;;;2.90;;
77814;SDS011;67002;52.124;21.210;2023-03-16T09:12:52;4.50;;;2.90;;
77814;SDS011;67002;52.124;21.210;2023-03-16T09:15:25;4.90;;;3.10;;
77814;SDS011;67002;52.124;21.210;2023-03-16T09:17:57;4.40;;;2.60;;
77814;SDS011;67002;52.124;21.210;2023-03-16T09:20:31;5.80;;;3.30;;
77814;SDS011;67002;52.124;21.210;2023-03-16T09:23:04;3.80;;;2.80;;
77814;SDS011;67002;52.124;21.210;2023-03-16T09:25:35;5.00;;;3.00;;
77814;SDS011;67002;52.124;21.210;2023-03-16T09:28:07;6.20;;;3.90;;
77814;SDS011;67002;52.124;21.210;2023-03-16T09:30:40;4.20;;;3.10;;
77814;SDS011;67002;52.124;21.210;2023-03-16T09:33:13;3.70;;;2.80;;
77814;SDS011;67002;52.124;21.210;2023-03-16T09:35:45;5.30;;;3.30;;
77814;SDS011;67002;52.124;21.210;2023-03-16T09:38:18;3.60;;;2.90;;
77814;SDS011;67002;52.124;21.210;2023-03-16T09:40:54;3.90;;;2.50;;
77814;SDS011;67002;52.124;21.210;2023-03-16T09:43:52;4.10;;;3.10;;
77814;SDS011;67002;52.124;21.210;2023-03-16T09:46:30;4.50;;;2.80;;
77814;SDS011;67002;52.124;21.210;2023-03-16T09:51:40;5.30;;;2.50;;
77814;SDS011;67002;52.124;21.210;2023-03-16T09:54:16;4.60;;;2.30;;
77814;SDS011;67002;52.124;21.210;2023-03-16T09:56:51;4.60;;;2.50;;
77814;SDS011;67002;52.124;21.210;2023-03-16T09:59:25;4.00;;;2.30;;
77814;SDS011;67002;52.124;21.210;2023-03-16T10:02:01;3.00;;;1.80;;
77814;SDS011;67002;52.124;21.210;2023-03-16T10:04:45;4.50;;;2.30;;
77814;SDS011;67002;52.124;21.210;2023-03-16T10:07:24;4.40;;;2.30;;
77814;SDS011;67002;52.124;21.210;2023-03-16T10:10:04;4.30;;;2.40;;
77814;SDS011;67002;52.124;21.210;2023-03-16T10:12:45;3.30;;;2.40;;
77814;SDS011;67002;52.124;21.210;2023-03-16T10:15:21;3.30;;;2.50;;
77814;SDS011;67002;52.124;21.210;2023-03-16T10:17:55;4.00;;;2.30;;
77814;SDS011;67002;52.124;21.210;2023-03-16T10:20:31;4.70;;;2.70;;
77814;SDS011;67002;52.124;21.210;2023-03-16T10:23:07;4.10;;;2.80;;
77814;SDS011;67002;52.124;21.210;2023-03-16T10:25:45;4.60;;;2.50;;
77814;SDS011;67002;52.124;21.210;2023-03-16T10:28:19;3.70;;;1.90;;
77814;SDS011;67002;52.124;21.210;2023-03-16T10:30:53;4.60;;;2.50;;
77814;SDS011;67002;52.124;21.210;2023-03-16T10:33:26;2.30;;;1.40;;
77814;SDS011;67002;52.124;21.210;2023-03-16T10:36:01;3.10;;;1.40;;
77814;SDS011;67002;52.124;21.210;2023-03-16T10:38:40;2.80;;;1.40;;
77814;SDS011;67002;52.124;21.210;2023-03-16T10:41:20;3.00;;;1.90;;
77814;SDS011;67002;52.124;21.210;2023-03-16T10:43:55;2.10;;;1.50;;
77814;SDS011;67002;52.124;21.210;2023-03-16T10:46:37;2.60;;;1.40;;
77814;SDS011;67002;52.124;21.210;2023-03-16T10:49:20;3.40;;;1.40;;
77814;SDS011;67002;52.124;21.210;2023-03-16T10:51:55;1.80;;;1.30;;
77814;SDS011;67002;52.124;21.210;2023-03-16T10:54:30;3.20;;;1.50;;
77814;SDS011;67002;52.124;21.210;2023-03-16T10:57:13;2.30;;;1.60;;
77814;SDS011;67002;52.124;21.210;2023-03-16T10:59:52;3.70;;;1.60;;
77814;SDS011;67002;52.124;21.210;2023-03-16T11:02:30;2.10;;;1.50;;
77814;SDS011;67002;52.124;21.210;2023-03-16T11:05:14;2.50;;;1.40;;
77814;SDS011;67002;52.124;21.210;2023-03-16T11:07:58;2.00;;;1.20;;
77814;SDS011;67002;52.124;21.210;2023-03-16T11:10:32;1.80;;;1.20;;
77814;SDS011;67002;52.124;21.210;2023-03-16T11:13:21;2.10;;;1.40;;
77814;SDS011;67002;52.124;21.210;2023-03-16T11:15:55;2.40;;;1.40;;
77814;SDS011;67002;52.124;21.210;2023-03-16T11:18:30;2.00;;;1.10;;
77814;SDS011;67002;52.124;21.210;2023-03-16T11:21:12;1.90;;;1.20;;
77814;SDS011;67002;52.124;21.210;2023-03-16T11:23:46;2.00;;;1.10;;
77814;SDS011;67002;52.124;21.210;2023-03-16T11:26:21;1.20;;;0.90;;
77814;SDS011;67002;52.124;21.210;2023-03-16T11:28:58;2.60;;;1.60;;
77814;SDS011;67002;52.124;21.210;2023-03-16T11:31:38;2.90;;;1.80;;
77814;SDS011;67002;52.124;21.210;2023-03-16T11:34:18;3.20;;;1.50;;
77814;SDS011;67002;52.124;21.210;2023-03-16T11:36:52;2.30;;;1.60;;
77814;SDS011;67002;52.124;21.210;2023-03-16T11:39:30;2.80;;;1.70;;
77814;SDS011;67002;52.124;21.210;2023-03-16T11:42:21;3.60;;;2.10;;
77814;SDS011;67002;52.124;21.210;2023-03-16T11:44:59;2.80;;;1.90;;
77814;SDS011;67002;52.124;21.210;2023-03-16T11:50:34;2.30;;;1.60;;
77814;SDS011;67002;52.124;21.210;2023-03-16T11:53:15;2.30;;;1.80;;
77814;SDS011;67002;52.124;21.210;2023-03-16T11:55:56;2.80;;;1.90;;
77814;SDS011;67002;52.124;21.210;2023-03-16T11:58:41;3.80;;;2.00;;
77814;SDS011;67002;52.124;21.210;2023-03-16T12:01:21;3.70;;;1.80;;
77814;SDS011;67002;52.124;21.210;2023-03-16T12:04:12;4.80;;;2.00;;
77814;SDS011;67002;52.124;21.210;2023-03-16T12:06:55;3.50;;;1.70;;
77814;SDS011;67002;52.124;21.210;2023-03-16T12:09:43;2.30;;;1.40;;
77814;SDS011;67002;52.124;21.210;2023-03-16T12:15:02;3.10;;;1.90;;
77814;SDS011;67002;52.124;21.210;2023-03-16T12:17:42;4.60;;;2.10;;
77814;SDS011;67002;52.124;21.210;2023-03-16T12:20:15;5.00;;;2.00;;
77814;SDS011;67002;52.124;21.210;2023-03-16T12:25:20;3.10;;;1.60;;
77814;SDS011;67002;52.124;21.210;2023-03-16T12:27:54;4.90;;;2.30;;
77814;SDS011;67002;52.124;21.210;2023-03-16T12:30:32;2.60;;;1.60;;
77814;SDS011;67002;52.124;21.210;2023-03-16T12:33:09;6.20;;;2.20;;
77814;SDS011;67002;52.124;21.210;2023-03-16T12:35:47;2.20;;;1.30;;
77814;SDS011;67002;52.124;21.210;2023-03-16T12:38:36;6.10;;;2.10;;
77814;SDS011;67002;52.124;21.210;2023-03-16T12:41:21;4.70;;;2.10;;
77814;SDS011;67002;52.124;21.210;2023-03-16T12:44:05;3.70;;;1.70;;
77814;SDS011;67002;52.124;21.210;2023-03-16T12:46:44;3.70;;;1.60;;
77814;SDS011;67002;52.124;21.210;2023-03-16T12:49:24;2.50;;;1.60;;
77814;SDS011;67002;52.124;21.210;2023-03-16T12:52:00;3.40;;;1.80;;
77814;SDS011;67002;52.124;21.210;2023-03-16T12:54:33;4.00;;;1.50;;
77814;SDS011;67002;52.124;21.210;2023-03-16T12:57:07;3.40;;;1.50;;
77814;SDS011;67002;52.124;21.210;2023-03-16T12:59:44;4.60;;;2.10;;
77814;SDS011;67002;52.124;21.210;2023-03-16T13:02:19;4.70;;;1.90;;
77814;SDS011;67002;52.124;21.210;2023-03-16T13:04:56;5.30;;;1.80;;
77814;SDS011;67002;52.124;21.210;2023-03-16T13:10:01;4.20;;;1.90;;
77814;SDS011;67002;52.124;21.210;2023-03-16T13:12:39;4.10;;;1.80;;
77814;SDS011;67002;52.124;21.210;2023-03-16T13:15:27;5.60;;;1.90;;
77814;SDS011;67002;52.124;21.210;2023-03-16T13:18:04;3.90;;;1.70;;
77814;SDS011;67002;52.124;21.210;2023-03-16T13:20:51;4.90;;;1.70;;
77814;SDS011;67002;52.124;21.210;2023-03-16T13:23:26;4.80;;;1.70;;
77814;SDS011;67002;52.124;21.210;2023-03-16T13:26:00;3.40;;;2.30;;
77814;SDS011;67002;52.124;21.210;2023-03-16T13:28:35;3.00;;;1.80;;
77814;SDS011;67002;52.124;21.210;2023-03-16T13:31:19;3.10;;;1.80;;
77814;SDS011;67002;52.124;21.210;2023-03-16T13:33:55;3.20;;;1.90;;
77814;SDS011;67002;52.124;21.210;2023-03-16T13:36:28;3.80;;;2.30;;
77814;SDS011;67002;52.124;21.210;2023-03-16T13:39:04;3.40;;;2.10;;
77814;SDS011;67002;52.124;21.210;2023-03-16T13:41:43;4.10;;;2.00;;
77814;SDS011;67002;52.124;21.210;2023-03-16T13:44:25;4.50;;;1.40;;
77814;SDS011;67002;52.124;21.210;2023-03-16T13:47:02;4.10;;;1.60;;
77814;SDS011;67002;52.124;21.210;2023-03-16T13:49:43;6.80;;;2.10;;
77814;SDS011;67002;52.124;21.210;2023-03-16T13:52:18;5.90;;;1.90;;
77814;SDS011;67002;52.124;21.210;2023-03-16T13:54:53;3.70;;;1.80;;
77814;SDS011;67002;52.124;21.210;2023-03-16T13:57:27;2.60;;;1.50;;
77814;SDS011;67002;52.124;21.210;2023-03-16T14:00:04;4.20;;;1.80;;
77814;SDS011;67002;52.124;21.210;2023-03-16T14:02:45;2.90;;;1.50;;
77814;SDS011;67002;52.124;21.210;2023-03-16T14:05:22;3.50;;;1.70;;
77814;SDS011;67002;52.124;21.210;2023-03-16T14:07:56;4.70;;;2.00;;
77814;SDS011;67002;52.124;21.210;2023-03-16T14:10:30;4.70;;;2.10;;
77814;SDS011;67002;52.124;21.210;2023-03-16T14:13:07;3.90;;;1.80;;
77814;SDS011;67002;52.124;21.210;2023-03-16T14:15:39;4.40;;;1.90;;
77814;SDS011;67002;52.124;21.210;2023-03-16T14:18:13;5.10;;;2.90;;
77814;SDS011;67002;52.124;21.210;2023-03-16T14:20:50;3.20;;;1.70;;
77814;SDS011;67002;52.124;21.210;2023-03-16T14:23:24;3.20;;;1.80;;
77814;SDS011;67002;52.124;21.210;2023-03-16T14:25:59;3.90;;;1.80;;
77814;SDS011;67002;52.124;21.210;2023-03-16T14:28:34;6.70;;;4.00;;
77814;SDS011;67002;52.124;21.210;2023-03-16T14:31:08;5.00;;;1.80;;
77814;SDS011;67002;52.124;21.210;2023-03-16T14:33:41;5.60;;;2.00;;
77814;SDS011;67002;52.124;21.210;2023-03-16T14:36:14;3.00;;;1.40;;
77814;SDS011;67002;52.124;21.210;2023-03-16T14:38:47;3.40;;;1.90;;
77814;SDS011;67002;52.124;21.210;2023-03-16T14:41:23;3.20;;;1.90;;
77814;SDS011;67002;52.124;21.210;2023-03-16T14:43:56;3.90;;;1.80;;
77814;SDS011;67002;52.124;21.210;2023-03-16T14:46:30;3.90;;;2.10;;
77814;SDS011;67002;52.124;21.210;2023-03-16T14:49:05;3.50;;;1.60;;
77814;SDS011;67002;52.124;21.210;2023-03-16T14:51:38;3.10;;;1.80;;
77814;SDS011;67002;52.124;21.210;2023-03-16T14:54:12;3.20;;;1.60;;
77814;SDS011;67002;52.124;21.210;2023-03-16T14:56:47;2.80;;;1.70;;
77814;SDS011;67002;52.124;21.210;2023-03-16T14:59:20;2.60;;;1.40;;
77814;SDS011;67002;52.124;21.210;2023-03-16T15:01:52;4.10;;;1.70;;
77814;SDS011;67002;52.124;21.210;2023-03-16T15:04:26;3.30;;;1.80;;
77814;SDS011;67002;52.124;21.210;2023-03-16T15:07:00;3.60;;;1.80;;
77814;SDS011;67002;52.124;21.210;2023-03-16T15:09:34;2.90;;;1.80;;
77814;SDS011;67002;52.124;21.210;2023-03-16T15:12:12;4.40;;;1.70;;
77814;SDS011;67002;52.124;21.210;2023-03-16T15:14:46;3.80;;;1.80;;
77814;SDS011;67002;52.124;21.210;2023-03-16T15:17:36;2.30;;;1.30;;
77814;SDS011;67002;52.124;21.210;2023-03-16T15:20:09;2.40;;;1.40;;
77814;SDS011;67002;52.124;21.210;2023-03-16T15:22:42;3.20;;;2.10;;
77814;SDS011;67002;52.124;21.210;2023-03-16T15:25:22;3.80;;;1.50;;
77814;SDS011;67002;52.124;21.210;2023-03-16T15:27:57;2.00;;;1.40;;
77814;SDS011;67002;52.124;21.210;2023-03-16T15:30:30;4.90;;;1.90;;
77814;SDS011;67002;52.124;21.210;2023-03-16T15:33:03;2.60;;;1.50;;